createdAt,value
2023-04-26T00:02:05.369Z,15.13
2023-04-26T00:04:34.372Z,15.08
2023-04-26T00:07:02.160Z,15.02
2023-04-26T00:09:29.937Z,14.98
2023-04-26T00:11:57.558Z,14.96
2023-04-26T00:14:26.165Z,14.99
2023-04-26T00:16:53.687Z,14.85
2023-04-26T00:19:21.692Z,14.84
2023-04-26T00:21:49.183Z,14.81
2023-04-26T00:24:16.709Z,14.78
2023-04-26T00:26:44.143Z,14.71
2023-04-26T00:29:11.730Z,14.72
2023-04-26T00:31:40.249Z,14.70
2023-04-26T00:34:07.890Z,14.69
2023-04-26T00:36:35.333Z,14.67
2023-04-26T00:39:03.120Z,14.66
2023-04-26T00:41:30.620Z,14.66
2023-04-26T00:43:58.099Z,14.67
2023-04-26T00:46:26.770Z,14.65
2023-04-26T00:48:54.561Z,14.64
2023-04-26T00:51:22.363Z,14.59
2023-04-26T00:53:50.134Z,14.60
2023-04-26T00:56:17.796Z,14.55
2023-04-26T00:58:46.606Z,14.60
2023-04-26T01:01:14.293Z,14.62
2023-04-26T01:03:43.350Z,14.63
2023-04-26T01:06:12.839Z,14.67
2023-04-26T01:08:40.780Z,14.68
2023-04-26T01:11:08.779Z,14.60
2023-04-26T01:13:38.576Z,14.75
2023-04-26T01:16:08.804Z,14.85
2023-04-26T01:18:36.512Z,14.86
2023-04-26T01:21:05.350Z,14.97
2023-04-26T01:23:33.029Z,15.05
2023-04-26T01:26:00.687Z,15.10
2023-04-26T01:28:28.149Z,15.21
2023-04-26T01:30:57.139Z,15.29
2023-04-26T01:33:25.040Z,15.37
2023-04-26T01:35:52.676Z,15.48
2023-04-26T01:38:20.441Z,15.56
2023-04-26T01:40:48.014Z,15.64
2023-04-26T01:43:16.821Z,15.75
2023-04-26T01:45:49.633Z,15.88
2023-04-26T01:48:30.920Z,15.93
2023-04-26T01:51:01.602Z,16.04
2023-04-26T01:53:29.061Z,16.10
2023-04-26T01:55:56.664Z,16.22
2023-04-26T01:58:24.284Z,16.31
2023-04-26T02:00:55.032Z,16.45
2023-04-26T02:03:24.819Z,16.52
2023-04-26T02:05:52.383Z,16.64
2023-04-26T02:08:19.876Z,16.70
2023-04-26T02:10:47.543Z,16.75
2023-04-26T02:13:15.752Z,16.89
2023-04-26T02:15:47.089Z,17.02
2023-04-26T02:18:15.553Z,17.06
2023-04-26T02:20:44.610Z,17.15
2023-04-26T02:23:12.861Z,17.26
2023-04-26T02:25:47.160Z,17.41
2023-04-26T02:28:16.508Z,17.50
2023-04-26T02:30:44.677Z,17.58
2023-04-26T02:33:12.185Z,17.72
2023-04-26T02:35:40.022Z,17.95
2023-04-26T02:38:07.653Z,18.20
2023-04-26T02:40:36.197Z,18.45
2023-04-26T02:43:03.916Z,18.70
2023-04-26T02:45:31.407Z,18.95
2023-04-26T02:47:59.566Z,19.15
2023-04-26T02:50:27.709Z,19.24
2023-04-26T02:52:55.174Z,19.35
2023-04-26T02:55:22.654Z,19.38
2023-04-26T02:57:50.766Z,19.28
2023-04-26T03:00:18.285Z,19.21
2023-04-26T03:02:45.883Z,19.15
2023-04-26T03:05:14.030Z,19.20
2023-04-26T03:07:41.921Z,19.25
2023-04-26T03:10:10.111Z,19.27
2023-04-26T03:12:39.119Z,19.32
2023-04-26T03:15:07.076Z,19.29
2023-04-26T03:17:34.838Z,19.31
2023-04-26T03:20:05.983Z,19.27
2023-04-26T03:22:34.404Z,19.27
2023-04-26T03:25:02.041Z,19.27
2023-04-26T03:27:31.421Z,19.35
2023-04-26T03:30:00.869Z,19.42
2023-04-26T03:32:31.360Z,19.47
2023-04-26T03:34:58.979Z,19.51
2023-04-26T03:37:26.496Z,19.58
2023-04-26T03:40:00.468Z,19.63
2023-04-26T03:42:27.918Z,19.71
2023-04-26T03:44:55.432Z,19.79
2023-04-26T03:47:23.481Z,19.91
2023-04-26T03:49:52.061Z,20.02
2023-04-26T03:52:20.230Z,20.11
2023-04-26T03:54:48.352Z,20.26
2023-04-26T03:57:15.848Z,20.35
2023-04-26T03:59:43.629Z,20.49
2023-04-26T04:02:11.150Z,20.58
2023-04-26T04:04:38.899Z,20.75
2023-04-26T04:07:07.063Z,20.96
2023-04-26T04:09:35.267Z,21.12
2023-04-26T04:12:03.347Z,21.35
2023-04-26T04:14:30.975Z,21.59
2023-04-26T04:16:59.802Z,21.81
2023-04-26T04:19:28.387Z,22.03
2023-04-26T04:21:56.606Z,22.27
2023-04-26T04:24:25.993Z,22.57
2023-04-26T04:26:53.728Z,22.97
2023-04-26T04:29:21.262Z,23.38
2023-04-26T04:31:48.994Z,23.78
2023-04-26T04:34:16.744Z,24.08
2023-04-26T04:36:45.415Z,24.26
2023-04-26T04:39:16.396Z,24.59
2023-04-26T04:41:48.535Z,24.94
2023-04-26T04:44:21.862Z,25.12
2023-04-26T04:46:49.408Z,25.40
2023-04-26T04:49:18.900Z,25.53
2023-04-26T04:51:46.635Z,25.65
2023-04-26T04:54:16.557Z,25.70
2023-04-26T04:56:46.167Z,25.89
2023-04-26T04:59:15.524Z,26.00
2023-04-26T05:01:43.136Z,26.11
2023-04-26T05:04:14.673Z,26.22
2023-04-26T05:06:42.605Z,26.36
2023-04-26T05:09:11.692Z,26.56
2023-04-26T05:11:39.800Z,26.80
2023-04-26T05:14:10.024Z,26.95
2023-04-26T05:16:38.700Z,27.15
2023-04-26T05:19:09.238Z,27.43
2023-04-26T05:21:37.621Z,27.79
2023-04-26T05:24:06.687Z,28.20
2023-04-26T05:26:36.122Z,28.68
2023-04-26T05:29:19.057Z,29.34
2023-04-26T05:32:07.115Z,29.84
2023-04-26T05:34:41.587Z,30.23
2023-04-26T05:37:12.807Z,30.82
2023-04-26T05:39:40.235Z,31.20
2023-04-26T05:42:08.077Z,31.67
2023-04-26T05:44:36.382Z,32.15
2023-04-26T05:47:03.860Z,32.88
2023-04-26T05:49:31.777Z,33.29
2023-04-26T05:52:03.867Z,33.19
2023-04-26T05:54:31.577Z,33.31
2023-04-26T05:56:59.369Z,32.93
2023-04-26T05:59:33.159Z,32.55
2023-04-26T06:02:01.758Z,32.40
2023-04-26T06:04:30.298Z,32.51
2023-04-26T06:07:07.858Z,32.49
2023-04-26T06:09:35.529Z,32.20
2023-04-26T06:12:04.589Z,32.11
2023-04-26T06:14:35.440Z,31.97
2023-04-26T06:17:07.560Z,31.56
2023-04-26T06:19:35.138Z,31.72
2023-04-26T06:22:02.677Z,31.62
2023-04-26T06:24:30.856Z,31.65
2023-04-26T06:26:59.140Z,31.46
2023-04-26T06:29:26.862Z,31.44
2023-04-26T06:31:54.857Z,31.32
2023-04-26T06:34:24.780Z,30.74
2023-04-26T06:36:52.432Z,30.35
2023-04-26T06:39:21.432Z,30.13
2023-04-26T06:41:50.996Z,30.02
2023-04-26T06:44:27.579Z,29.94
2023-04-26T06:47:02.259Z,29.92
2023-04-26T06:49:29.813Z,30.15
2023-04-26T06:51:58.053Z,30.16
2023-04-26T06:54:29.301Z,30.17
2023-04-26T06:56:57.947Z,29.92
2023-04-26T06:59:26.327Z,30.00
2023-04-26T07:01:54.866Z,29.78
2023-04-26T07:04:22.830Z,29.88
2023-04-26T07:06:50.784Z,29.74
2023-04-26T07:09:18.204Z,29.39
2023-04-26T07:11:48.576Z,29.05
2023-04-26T07:14:16.178Z,27.99
2023-04-26T07:16:44.592Z,28.26
2023-04-26T07:19:12.210Z,27.79
2023-04-26T07:21:39.696Z,27.54
2023-04-26T07:24:07.253Z,27.58
2023-04-26T07:26:37.322Z,27.93
2023-04-26T07:29:04.863Z,27.78
2023-04-26T07:31:32.648Z,27.71
2023-04-26T07:34:00.261Z,27.67
2023-04-26T07:36:28.242Z,27.45
2023-04-26T07:38:55.756Z,27.64
2023-04-26T07:41:23.593Z,27.64
2023-04-26T07:43:51.214Z,27.49
2023-04-26T07:46:19.093Z,27.49
2023-04-26T07:48:46.748Z,27.48
2023-04-26T07:51:14.407Z,27.50
2023-04-26T07:53:42.093Z,27.10
2023-04-26T07:56:10.203Z,27.00
2023-04-26T07:58:39.522Z,26.87
2023-04-26T08:01:07.366Z,26.95
2023-04-26T08:03:35.236Z,27.10
2023-04-26T08:06:03.422Z,27.30
2023-04-26T08:08:32.561Z,27.70
2023-04-26T08:11:00.212Z,27.84
2023-04-26T08:13:29.338Z,28.21
2023-04-26T08:15:57.154Z,28.01
2023-04-26T08:18:24.671Z,28.03
2023-04-26T08:20:52.161Z,28.10
2023-04-26T08:23:19.963Z,28.22
2023-04-26T08:25:48.035Z,28.27
2023-04-26T08:28:16.218Z,28.46
2023-04-26T08:30:44.075Z,28.67
2023-04-26T08:33:11.692Z,28.75
2023-04-26T08:35:39.142Z,28.92
2023-04-26T08:38:06.583Z,28.70
2023-04-26T08:40:34.406Z,28.58
2023-04-26T08:43:01.808Z,28.62
2023-04-26T08:45:29.339Z,28.63
2023-04-26T08:48:04.904Z,28.57
2023-04-26T08:50:35.035Z,28.65
2023-04-26T08:53:02.655Z,28.35
2023-04-26T08:55:30.645Z,28.30
2023-04-26T08:57:58.865Z,28.36
2023-04-26T09:00:27.631Z,28.07
2023-04-26T09:02:55.226Z,27.83
2023-04-26T09:05:27.462Z,27.67
2023-04-26T09:08:01.151Z,27.66
2023-04-26T09:10:28.810Z,27.63
2023-04-26T09:12:56.779Z,27.46
2023-04-26T09:15:26.692Z,27.48
2023-04-26T09:17:54.808Z,27.52
2023-04-26T09:20:24.548Z,27.47
2023-04-26T09:23:12.998Z,27.43
2023-04-26T09:25:40.681Z,27.34
2023-04-26T09:28:22.691Z,27.81
2023-04-26T09:30:50.846Z,27.41
2023-04-26T09:33:19.757Z,27.28
2023-04-26T09:35:47.257Z,27.21
2023-04-26T09:38:16.939Z,27.11
2023-04-26T09:40:49.798Z,27.31
2023-04-26T09:43:19.560Z,27.19
2023-04-26T09:45:54.290Z,27.21
2023-04-26T09:48:26.094Z,27.17
2023-04-26T09:50:56.312Z,26.98
2023-04-26T09:53:37.590Z,27.12
2023-04-26T09:56:10.711Z,26.92
2023-04-26T09:58:59.739Z,27.34
2023-04-26T10:01:31.692Z,26.73
2023-04-26T10:04:02.202Z,26.56
2023-04-26T10:06:30.045Z,26.32
2023-04-26T10:08:58.093Z,26.21
2023-04-26T10:11:27.426Z,26.26
2023-04-26T10:13:55.617Z,26.21
2023-04-26T10:16:24.105Z,26.08
2023-04-26T10:18:52.030Z,26.00
2023-04-26T10:21:35.719Z,25.96
2023-04-26T10:24:03.676Z,25.73
2023-04-26T10:26:57.777Z,26.09
2023-04-26T10:29:28.226Z,25.72
2023-04-26T10:32:04.734Z,25.80
2023-04-26T10:34:34.300Z,25.46
2023-04-26T10:37:11.160Z,25.76
2023-04-26T10:39:40.201Z,25.20
2023-04-26T10:42:30.450Z,25.48
2023-04-26T10:45:21.187Z,25.49
2023-04-26T10:47:48.828Z,25.19
2023-04-26T10:50:16.482Z,24.51
2023-04-26T10:53:04.056Z,25.32
2023-04-26T10:55:42.019Z,25.00
2023-04-26T10:58:30.506Z,24.74
2023-04-26T11:01:07.511Z,24.34
2023-04-26T11:03:35.524Z,23.72
2023-04-26T11:06:16.028Z,23.64
2023-04-26T11:08:43.613Z,23.18
2023-04-26T11:11:12.885Z,23.01
2023-04-26T11:13:44.455Z,22.44
2023-04-26T11:16:16.763Z,22.26
2023-04-26T11:18:46.369Z,22.07
2023-04-26T11:21:18.363Z,22.21
2023-04-26T11:23:55.803Z,22.43
2023-04-26T11:26:24.998Z,22.09
2023-04-26T11:28:52.714Z,22.00
2023-04-26T11:31:20.379Z,21.93
2023-04-26T11:33:50.593Z,21.88
2023-04-26T11:36:19.998Z,21.86
2023-04-26T11:38:47.844Z,21.68
2023-04-26T11:41:15.282Z,21.57
2023-04-26T11:43:42.874Z,21.32
2023-04-26T11:46:10.569Z,21.29
2023-04-26T11:48:39.684Z,21.33
2023-04-26T11:51:09.160Z,21.30
2023-04-26T11:53:41.558Z,21.27
2023-04-26T11:56:20.627Z,21.32
2023-04-26T11:58:50.877Z,21.05
2023-04-26T12:01:26.653Z,21.05
2023-04-26T12:03:59.322Z,20.95
2023-04-26T12:06:33.110Z,21.00
2023-04-26T12:09:05.948Z,20.86
2023-04-26T12:11:33.545Z,20.83
2023-04-26T12:14:01.981Z,20.70
2023-04-26T12:16:29.605Z,20.62
2023-04-26T12:18:57.757Z,20.65
2023-04-26T12:21:28.159Z,20.58
2023-04-26T12:23:57.315Z,20.49
2023-04-26T12:26:46.324Z,20.50
2023-04-26T12:29:13.841Z,20.35
2023-04-26T12:31:42.089Z,20.28
2023-04-26T12:34:09.803Z,20.02
2023-04-26T12:36:37.469Z,19.90
2023-04-26T12:39:05.626Z,19.81
2023-04-26T12:41:33.162Z,20.06
2023-04-26T12:44:01.272Z,19.79
2023-04-26T12:46:28.779Z,19.77
2023-04-26T12:48:56.311Z,19.72
2023-04-26T12:51:23.787Z,19.78
2023-04-26T12:53:51.377Z,19.58
2023-04-26T12:56:19.049Z,19.55
2023-04-26T12:58:46.638Z,19.40
2023-04-26T13:01:14.690Z,19.42
2023-04-26T13:03:43.351Z,19.30
2023-04-26T13:06:13.654Z,19.33
2023-04-26T13:08:42.014Z,19.29
2023-04-26T13:11:10.773Z,19.34
2023-04-26T13:13:43.459Z,19.51
2023-04-26T13:16:13.300Z,19.33
2023-04-26T13:18:41.942Z,19.34
2023-04-26T13:21:09.460Z,19.22
2023-04-26T13:23:37.042Z,19.18
2023-04-26T13:26:04.554Z,18.90
2023-04-26T13:28:32.237Z,18.74
2023-04-26T13:30:59.888Z,18.78
2023-04-26T13:33:27.625Z,18.63
2023-04-26T13:35:55.056Z,18.72
2023-04-26T13:38:22.619Z,18.63
2023-04-26T13:40:50.112Z,18.70
2023-04-26T13:43:17.871Z,18.82
2023-04-26T13:45:45.413Z,18.65
2023-04-26T13:48:15.119Z,18.75
2023-04-26T13:50:44.318Z,18.54
2023-04-26T13:53:13.337Z,18.51
2023-04-26T13:55:40.985Z,18.49
2023-04-26T13:58:08.574Z,18.52
2023-04-26T14:00:36.757Z,18.51
2023-04-26T14:03:04.608Z,18.55
2023-04-26T14:05:32.286Z,18.46
2023-04-26T14:08:00.689Z,18.46
2023-04-26T14:10:32.006Z,18.47
2023-04-26T14:12:59.810Z,18.45
2023-04-26T14:15:27.302Z,18.60
2023-04-26T14:17:54.870Z,18.52
2023-04-26T14:20:23.922Z,18.53
2023-04-26T14:22:51.677Z,18.45
2023-04-26T14:25:19.550Z,18.44
2023-04-26T14:27:47.718Z,18.48
2023-04-26T14:30:15.856Z,18.45
2023-04-26T14:32:43.709Z,18.36
2023-04-26T14:35:11.300Z,18.24
2023-04-26T14:37:39.158Z,18.23
2023-04-26T14:40:08.321Z,18.30
2023-04-26T14:42:36.531Z,18.40
2023-04-26T14:45:04.678Z,18.36
2023-04-26T14:47:33.049Z,18.32
2023-04-26T14:50:00.539Z,18.22
2023-04-26T14:52:29.429Z,17.90
2023-04-26T14:54:57.594Z,17.94
2023-04-26T14:57:25.271Z,17.81
2023-04-26T14:59:52.768Z,17.81
2023-04-26T15:02:20.333Z,17.79
2023-04-26T15:04:48.005Z,17.77
2023-04-26T15:07:28.769Z,17.82
2023-04-26T15:09:59.259Z,17.88
2023-04-26T15:12:26.727Z,17.83
2023-04-26T15:14:54.580Z,17.87
2023-04-26T15:17:22.283Z,17.59
2023-04-26T15:19:49.712Z,17.64
2023-04-26T15:22:17.481Z,17.60
2023-04-26T15:24:45.064Z,17.56
2023-04-26T15:27:13.029Z,17.62
2023-04-26T15:29:40.645Z,17.69
2023-04-26T15:32:08.133Z,17.66
2023-04-26T15:34:45.444Z,17.63
2023-04-26T15:37:13.193Z,17.56
2023-04-26T15:39:40.703Z,17.57
2023-04-26T15:42:08.308Z,17.54
2023-04-26T15:44:35.958Z,17.58
2023-04-26T15:47:04.113Z,17.49
2023-04-26T15:49:31.869Z,17.46
2023-04-26T15:51:59.431Z,17.55
2023-04-26T15:54:27.097Z,17.63
2023-04-26T15:56:55.552Z,17.62
2023-04-26T15:59:23.336Z,17.60
2023-04-26T16:01:51.255Z,17.50
2023-04-26T16:04:19.120Z,17.54
2023-04-26T16:06:46.806Z,17.42
2023-04-26T16:09:25.204Z,17.42
2023-04-26T16:11:53.641Z,17.46
2023-04-26T16:14:21.464Z,17.52
2023-04-26T16:16:49.089Z,17.49
2023-04-26T16:19:17.672Z,17.55
2023-04-26T16:21:45.395Z,17.56
2023-04-26T16:24:13.170Z,17.49
2023-04-26T16:26:41.301Z,17.52
2023-04-26T16:29:08.930Z,17.48
2023-04-26T16:31:37.107Z,17.49
2023-04-26T16:34:04.962Z,17.48
2023-04-26T16:36:33.241Z,17.33
2023-04-26T16:39:01.129Z,17.41
2023-04-26T16:41:28.664Z,17.49
2023-04-26T16:43:56.372Z,17.53
2023-04-26T16:46:24.073Z,17.44
2023-04-26T16:48:52.049Z,17.47
2023-04-26T16:51:19.436Z,17.46
2023-04-26T16:53:47.052Z,17.55
2023-04-26T16:56:14.527Z,17.57
2023-04-26T16:58:42.531Z,17.56
2023-04-26T17:01:10.085Z,17.39
2023-04-26T17:03:37.722Z,17.52
2023-04-26T17:06:06.920Z,17.54
2023-04-26T17:08:34.512Z,17.53
2023-04-26T17:11:02.154Z,17.47
2023-04-26T17:13:31.172Z,17.37
2023-04-26T17:15:58.838Z,17.28
2023-04-26T17:18:26.611Z,17.20
2023-04-26T17:20:56.533Z,17.33
2023-04-26T17:23:24.871Z,17.32
2023-04-26T17:25:54.998Z,17.23
2023-04-26T17:28:23.022Z,17.24
2023-04-26T17:30:50.713Z,17.21
2023-04-26T17:33:18.468Z,17.11
2023-04-26T17:35:47.518Z,17.11
2023-04-26T17:38:15.127Z,17.13
2023-04-26T17:40:42.594Z,17.23
2023-04-26T17:43:10.131Z,17.15
2023-04-26T17:45:37.632Z,17.13
2023-04-26T17:48:05.690Z,17.23
2023-04-26T17:50:33.343Z,17.17
2023-04-26T17:53:00.901Z,17.04
2023-04-26T17:55:28.373Z,17.01
2023-04-26T17:57:56.005Z,17.09
2023-04-26T18:00:24.335Z,16.94
2023-04-26T18:02:51.943Z,17.04
2023-04-26T18:05:19.686Z,17.07
2023-04-26T18:07:47.623Z,17.05
2023-04-26T18:10:15.068Z,17.03
2023-04-26T18:12:42.610Z,16.99
2023-04-26T18:15:10.317Z,17.00
2023-04-26T18:17:37.991Z,17.07
2023-04-26T18:20:06.873Z,17.10
2023-04-26T18:22:34.376Z,17.10
2023-04-26T18:25:01.936Z,17.08
2023-04-26T18:27:30.710Z,16.90
2023-04-26T18:29:58.598Z,17.12
2023-04-26T18:32:26.312Z,17.08
2023-04-26T18:34:53.808Z,17.08
2023-04-26T18:37:21.392Z,17.00
2023-04-26T18:39:49.114Z,17.06
2023-04-26T18:42:22.124Z,17.15
2023-04-26T18:44:49.865Z,17.30
2023-04-26T18:47:17.415Z,17.27
2023-04-26T18:49:44.859Z,17.29
2023-04-26T18:52:12.306Z,17.23
2023-04-26T18:54:39.882Z,17.19
2023-04-26T18:57:07.365Z,17.16
2023-04-26T18:59:34.924Z,17.22
2023-04-26T19:02:04.579Z,17.18
2023-04-26T19:04:32.610Z,17.23
2023-04-26T19:07:01.224Z,17.15
2023-04-26T19:09:36.991Z,17.18
2023-04-26T19:12:10.713Z,17.14
2023-04-26T19:14:38.187Z,17.21
2023-04-26T19:17:05.660Z,17.16
2023-04-26T19:19:33.287Z,17.21
2023-04-26T19:22:01.572Z,17.11
2023-04-26T19:24:29.323Z,17.20
2023-04-26T19:26:56.802Z,17.15
2023-04-26T19:29:24.444Z,17.17
2023-04-26T19:31:52.127Z,17.12
2023-04-26T19:34:19.816Z,17.13
2023-04-26T19:36:47.284Z,17.11
2023-04-26T19:39:16.835Z,17.14
2023-04-26T19:41:44.431Z,17.11
2023-04-26T19:44:13.182Z,17.20
2023-04-26T19:46:41.273Z,17.19
2023-04-26T19:49:09.018Z,17.27
2023-04-26T19:51:36.562Z,17.27
2023-04-26T19:54:04.270Z,17.16
2023-04-26T19:56:31.811Z,17.17
2023-04-26T19:58:59.520Z,17.16
2023-04-26T20:01:27.928Z,16.96
2023-04-26T20:03:55.613Z,16.98
2023-04-26T20:06:23.243Z,17.34
2023-04-26T20:08:50.812Z,17.56
2023-04-26T20:11:19.555Z,17.79
2023-04-26T20:13:47.003Z,17.93
2023-04-26T20:16:14.626Z,17.96
2023-04-26T20:18:42.522Z,17.77
2023-04-26T20:21:10.094Z,17.70
2023-04-26T20:23:38.128Z,17.73
2023-04-26T20:26:05.643Z,17.84
2023-04-26T20:28:33.427Z,17.86
2023-04-26T20:31:00.875Z,17.86
2023-04-26T20:33:29.410Z,17.81
2023-04-26T20:35:56.983Z,17.79
2023-04-26T20:38:24.569Z,17.77
2023-04-26T20:40:51.956Z,17.65
2023-04-26T20:43:19.418Z,17.66
2023-04-26T20:45:47.043Z,17.73
2023-04-26T20:48:14.633Z,17.74
2023-04-26T20:50:42.106Z,17.66
2023-04-26T20:53:09.645Z,17.68
2023-04-26T20:55:37.240Z,17.79
2023-04-26T20:58:04.818Z,17.74
2023-04-26T21:00:32.388Z,17.82
2023-04-26T21:03:00.083Z,17.87
2023-04-26T21:05:27.855Z,17.82
2023-04-26T21:07:55.406Z,17.84
2023-04-26T21:10:22.909Z,17.86
2023-04-26T21:12:50.496Z,17.91
2023-04-26T21:15:18.186Z,17.84
2023-04-26T21:17:45.752Z,17.88
2023-04-26T21:20:13.401Z,17.96
2023-04-26T21:22:41.065Z,18.03
2023-04-26T21:25:08.997Z,18.04
2023-04-26T21:27:38.179Z,18.00
2023-04-26T21:30:06.376Z,18.16
2023-04-26T21:32:33.941Z,18.19
2023-04-26T21:35:01.525Z,18.12
2023-04-26T21:37:29.241Z,18.14
2023-04-26T21:39:56.768Z,18.09
2023-04-26T21:42:24.209Z,18.01
2023-04-26T21:44:51.893Z,17.95
2023-04-26T21:47:20.169Z,17.95
2023-04-26T21:49:47.716Z,17.98
2023-04-26T21:52:15.272Z,17.93
2023-04-26T21:54:42.789Z,17.79
2023-04-26T21:57:10.470Z,17.70
2023-04-26T21:59:42.416Z,17.66
2023-04-26T22:02:10.164Z,17.59
2023-04-26T22:04:37.637Z,17.62
2023-04-26T22:07:05.180Z,17.58
2023-04-26T22:09:32.868Z,17.62
2023-04-26T22:12:00.365Z,17.66
2023-04-26T22:14:27.848Z,17.63
2023-04-26T22:16:55.524Z,17.61
2023-04-26T22:19:23.143Z,17.66
2023-04-26T22:21:50.800Z,17.59
2023-04-26T22:24:18.250Z,17.62
2023-04-26T22:26:48.712Z,17.60
2023-04-26T22:29:16.630Z,17.64
2023-04-26T22:31:44.135Z,17.65
2023-04-26T22:34:12.085Z,17.66
2023-04-26T22:36:40.113Z,17.69
2023-04-26T22:39:07.657Z,17.68
2023-04-26T22:41:35.345Z,17.70
2023-04-26T22:44:02.832Z,17.75
2023-04-26T22:46:30.517Z,17.75
2023-04-26T22:48:58.096Z,17.75
2023-04-26T22:51:25.835Z,17.75
2023-04-26T22:53:53.259Z,17.72
2023-04-26T22:56:20.726Z,17.75
2023-04-26T22:58:48.761Z,17.79
2023-04-26T23:01:16.258Z,17.84
2023-04-26T23:03:43.855Z,17.86
2023-04-26T23:06:11.369Z,17.77
2023-04-26T23:08:41.243Z,17.77
2023-04-26T23:11:11.887Z,17.77
2023-04-26T23:13:39.449Z,17.76
2023-04-26T23:16:07.449Z,17.73
2023-04-26T23:18:35.361Z,17.74
2023-04-26T23:21:02.956Z,17.83
2023-04-26T23:23:30.789Z,17.77
2023-04-26T23:25:58.477Z,17.76
2023-04-26T23:28:25.930Z,17.72
2023-04-26T23:30:53.454Z,17.74
2023-04-26T23:33:21.065Z,17.75
2023-04-26T23:35:48.595Z,17.80
2023-04-26T23:38:16.249Z,17.80
2023-04-26T23:40:43.888Z,17.77
2023-04-26T23:43:13.274Z,17.72
2023-04-26T23:45:47.369Z,17.78
2023-04-26T23:48:15.838Z,17.74
2023-04-26T23:50:43.712Z,17.76
2023-04-26T23:53:11.234Z,17.70
2023-04-26T23:55:40.006Z,17.70
2023-04-26T23:58:09.434Z,17.67
